Time;durP1;ratioP1;P1;durP2;ratioP2;P2;SDS_P1;SDS_P2;PMS_P1;PMS_P2;Temp;Humidity;BMP_temperature;BMP_pressure;BME280_temperature;BME280_humidity;BME280_pressure;Samples;Min_cycle;Max_cycle;Signal;HPM_P1;HPM_P2
2022/03/15 00:02:15;;;;;;;42.67;24.92;;;;;;;4.25;100.00;102764.84;5279240;28;20412;-83
2022/03/15 00:04:46;;;;;;;34.65;23.95;;;;;;;4.34;100.00;102740.72;5276300;28;20021;-82
2022/03/15 00:07:18;;;;;;;36.17;23.30;;;;;;;4.44;100.00;102753.63;5279605;28;20039;-83
2022/03/15 00:09:50;;;;;;;34.08;23.65;;;;;;;4.41;100.00;102751.94;5274853;28;20017;-83
2022/03/15 00:12:21;;;;;;;34.83;22.33;;;;;;;4.30;100.00;102741.75;5279146;28;20036;-82
2022/03/15 00:14:52;;;;;;;36.42;23.20;;;;;;;4.28;100.00;102733.03;5282114;28;20044;-83
2022/03/15 00:17:24;;;;;;;40.90;26.33;;;;;;;4.31;100.00;102745.25;5283627;28;20484;-82
2022/03/15 00:19:55;;;;;;;36.17;24.63;;;;;;;4.35;100.00;102745.09;5283743;28;20055;-82
2022/03/15 00:22:26;;;;;;;41.30;24.92;;;;;;;4.40;100.00;102734.38;5283540;28;20132;-82
2022/03/15 00:24:57;;;;;;;42.20;26.17;;;;;;;4.51;100.00;102733.97;5261078;28;20041;-82
2022/03/15 00:27:29;;;;;;;38.67;26.95;;;;;;;4.58;100.00;102737.25;5279232;28;20094;-82
2022/03/15 00:30:01;;;;;;;39.78;26.20;;;;;;;4.70;100.00;102734.16;5282706;28;20036;-82
2022/03/15 00:32:33;;;;;;;36.25;25.35;;;;;;;4.73;100.00;102728.72;5282681;28;20129;-83
2022/03/15 00:35:07;;;;;;;32.15;23.27;;;;;;;4.88;100.00;102741.38;5282831;28;20424;-82
2022/03/15 00:37:38;;;;;;;35.20;23.65;;;;;;;4.91;100.00;102738.63;5276891;28;20107;-82
2022/03/15 00:40:10;;;;;;;39.75;24.25;;;;;;;4.92;100.00;102724.47;5282907;28;20037;-82
2022/03/15 00:42:46;;;;;;;27.08;20.52;;;;;;;4.84;100.00;102739.78;5282729;28;20029;-82
2022/03/15 00:45:19;;;;;;;27.42;20.50;;;;;;;4.81;100.00;102742.53;5283784;28;20021;-82
2022/03/15 00:47:52;;;;;;;28.73;21.00;;;;;;;4.67;100.00;102719.25;5283341;28;20048;-83
2022/03/15 00:50:25;;;;;;;34.92;21.17;;;;;;;4.71;100.00;102731.44;5274967;28;20036;-83
2022/03/15 00:52:56;;;;;;;31.25;18.58;;;;;;;4.68;100.00;102731.56;5282994;28;20482;-83
2022/03/15 00:55:28;;;;;;;26.92;20.65;;;;;;;4.56;100.00;102718.81;5283127;28;20080;-82
2022/03/15 00:57:59;;;;;;;29.63;21.95;;;;;;;4.57;100.00;102717.03;5279682;28;20031;-82
2022/03/15 01:00:31;;;;;;;32.63;20.63;;;;;;;4.51;100.00;102713.69;5282686;28;20029;-83
2022/03/15 01:03:03;;;;;;;25.73;17.27;;;;;;;4.58;100.00;102724.06;5282272;28;20078;-82
2022/03/15 01:05:35;;;;;;;32.42;19.10;;;;;;;4.57;100.00;102727.59;5283319;28;20025;-83
2022/03/15 01:08:06;;;;;;;38.05;21.75;;;;;;;4.61;100.00;102715.97;5282620;28;20488;-83
2022/03/15 01:10:37;;;;;;;32.30;20.90;;;;;;;4.64;100.00;102718.50;5283059;28;20487;-82
2022/03/15 01:13:09;;;;;;;23.27;18.52;;;;;;;4.81;100.00;102716.09;5280590;28;43036;-82
2022/03/15 01:15:44;;;;;;;33.88;22.77;;;;;;;4.69;100.00;102724.50;5282869;28;20023;-83
2022/03/15 01:18:15;;;;;;;34.47;21.73;;;;;;;4.69;100.00;102714.78;5283120;28;20307;-82
2022/03/15 01:20:47;;;;;;;28.80;19.75;;;;;;;4.74;100.00;102720.75;5282639;28;20029;-82
2022/03/15 01:23:18;;;;;;;27.95;19.02;;;;;;;4.78;100.00;102715.34;5283421;28;20025;-82
2022/03/15 01:25:49;;;;;;;29.70;19.52;;;;;;;4.80;100.00;102724.94;5281241;28;20040;-83
2022/03/15 01:28:22;;;;;;;28.08;17.10;;;;;;;4.88;100.00;102714.94;5282310;28;20025;-82
2022/03/15 01:30:53;;;;;;;30.50;17.17;;;;;;;4.90;100.00;102712.22;5281080;28;20033;-82
2022/03/15 01:33:24;;;;;;;23.17;16.85;;;;;;;4.95;100.00;102706.78;5277994;28;20490;-83
2022/03/15 01:35:56;;;;;;;32.65;17.60;;;;;;;4.90;100.00;102691.94;5281957;28;20057;-82
2022/03/15 01:38:27;;;;;;;26.23;15.48;;;;;;;5.03;100.00;102696.72;5268246;28;20163;-82
2022/03/15 01:40:58;;;;;;;26.80;15.13;;;;;;;5.24;100.00;102692.34;5283419;28;20021;-82
2022/03/15 01:43:29;;;;;;;23.92;13.32;;;;;;;5.32;100.00;102686.78;5283715;28;20068;-82
2022/03/15 01:46:01;;;;;;;22.63;13.80;;;;;;;5.50;100.00;102688.63;5283264;28;20025;-82
2022/03/15 01:48:32;;;;;;;22.63;14.38;;;;;;;5.59;100.00;102695.31;5275764;28;20025;-81
2022/03/15 01:51:04;;;;;;;22.55;15.40;;;;;;;5.58;100.00;102681.25;5283147;28;20021;-81
2022/03/15 01:53:35;;;;;;;23.48;13.50;;;;;;;5.71;100.00;102694.81;5272113;28;20450;-81
2022/03/15 01:56:06;;;;;;;19.05;14.73;;;;;;;5.72;100.00;102685.09;5264079;28;20060;-81
2022/03/15 01:58:38;;;;;;;29.95;18.42;;;;;;;5.51;100.00;102687.72;5283298;28;20304;-81
2022/03/15 02:01:09;;;;;;;27.80;17.10;;;;;;;5.38;100.00;102675.91;5265321;28;20021;-81
2022/03/15 02:03:40;;;;;;;25.13;15.32;;;;;;;5.46;100.00;102689.69;5283555;28;20488;-81
2022/03/15 02:06:11;;;;;;;19.67;13.50;;;;;;;5.49;100.00;102679.84;5283294;28;20070;-81
2022/03/15 02:08:43;;;;;;;21.67;14.50;;;;;;;5.52;100.00;102689.44;5276985;28;20033;-81
2022/03/15 02:11:15;;;;;;;25.10;15.32;;;;;;;5.54;100.00;102673.47;5283609;28;20443;-81
2022/03/15 02:13:47;;;;;;;22.63;13.32;;;;;;;5.60;100.00;102682.03;5282829;28;20048;-81
2022/03/15 02:16:18;;;;;;;23.85;15.55;;;;;;;5.48;100.00;102682.56;5291855;28;20055;-81
2022/03/15 02:18:50;;;;;;;23.13;15.07;;;;;;;5.45;100.00;102683.56;5275465;28;20029;-80
2022/03/15 02:21:21;;;;;;;23.95;15.27;;;;;;;5.43;100.00;102664.22;5275725;28;20093;-80
2022/03/15 02:23:53;;;;;;;25.00;13.95;;;;;;;5.45;100.00;102665.03;5271960;28;20086;-81
2022/03/15 02:26:27;;;;;;;25.10;13.73;;;;;;;5.46;100.00;102650.00;5292621;28;20036;-81
2022/03/15 02:28:59;;;;;;;22.55;14.07;;;;;;;5.41;100.00;102642.25;5274321;28;20374;-81
2022/03/15 02:31:30;;;;;;;23.30;14.45;;;;;;;5.46;100.00;102657.94;5288677;28;20029;-80
2022/03/15 02:34:02;;;;;;;23.27;13.90;;;;;;;5.41;100.00;102642.25;5285215;28;20101;-81
2022/03/15 02:36:33;;;;;;;24.08;13.77;;;;;;;5.37;100.00;102645.09;5282923;28;20056;-81
2022/03/15 02:39:04;;;;;;;19.27;12.55;;;;;;;5.45;100.00;102643.84;5282954;28;20029;-81
2022/03/15 02:41:36;;;;;;;21.25;11.90;;;;;;;5.44;100.00;102649.22;5282146;28;20028;-81
2022/03/15 02:44:08;;;;;;;22.50;13.45;;;;;;;5.37;100.00;102639.81;5262923;28;20414;-81
2022/03/15 02:46:39;;;;;;;23.00;13.27;;;;;;;5.40;100.00;102651.13;5261436;28;20028;-81
2022/03/15 02:49:11;;;;;;;28.30;14.07;;;;;;;5.32;100.00;102644.44;5282659;28;20397;-81
2022/03/15 02:51:43;;;;;;;20.38;13.10;;;;;;;5.35;100.00;102631.94;5282810;28;20048;-81
2022/03/15 02:54:14;;;;;;;18.88;11.98;;;;;;;5.33;100.00;102624.97;5264355;28;20121;-81
2022/03/15 02:56:47;;;;;;;25.08;12.82;;;;;;;5.34;100.00;102624.91;5281199;28;20037;-81
2022/03/15 02:59:18;;;;;;;21.63;13.30;;;;;;;5.41;100.00;102631.66;5282703;28;20037;-81
2022/03/15 03:01:50;;;;;;;18.00;12.07;;;;;;;5.37;100.00;102618.63;5282249;28;20021;-81
2022/03/15 03:04:21;;;;;;;19.17;12.35;;;;;;;5.39;100.00;102620.28;5279855;28;20068;-81
2022/03/15 03:06:53;;;;;;;19.02;12.57;;;;;;;5.36;100.00;102608.97;5264063;28;20041;-81
2022/03/15 03:09:24;;;;;;;19.55;12.35;;;;;;;5.44;100.00;102610.34;5282460;28;20156;-81
2022/03/15 03:11:57;;;;;;;19.02;13.38;;;;;;;5.45;100.00;102601.50;5281313;28;20017;-81
2022/03/15 03:14:29;;;;;;;20.90;12.13;;;;;;;5.42;100.00;102595.50;5277255;28;20124;-80
2022/03/15 03:17:00;;;;;;;20.15;12.10;;;;;;;5.43;100.00;102602.47;5276451;28;20032;-80
2022/03/15 03:19:33;;;;;;;22.20;12.43;;;;;;;5.35;100.00;102586.06;5264961;28;20060;-81
2022/03/15 03:22:05;;;;;;;23.33;11.93;;;;;;;5.41;100.00;102604.34;5282123;28;20024;-81
2022/03/15 03:24:36;;;;;;;23.17;12.55;;;;;;;5.36;100.00;102593.09;5279326;28;20214;-81
2022/03/15 03:27:11;;;;;;;17.30;11.73;;;;;;;5.36;100.00;102595.75;5282159;28;20111;-81
2022/03/15 03:29:43;;;;;;;20.42;12.55;;;;;;;5.33;100.00;102590.56;5264184;28;20029;-81
2022/03/15 03:32:14;;;;;;;18.50;11.73;;;;;;;5.34;100.00;102593.16;5254069;28;20047;-81
2022/03/15 03:34:45;;;;;;;21.63;12.30;;;;;;;5.36;100.00;102590.44;5263872;28;20020;-81
2022/03/15 03:37:17;;;;;;;16.40;11.25;;;;;;;5.35;100.00;102594.88;5282099;28;20052;-81
2022/03/15 03:39:49;;;;;;;18.13;11.50;;;;;;;5.25;100.00;102573.25;5280989;28;20033;-81
2022/03/15 03:42:20;;;;;;;21.15;11.30;;;;;;;5.34;100.00;102593.16;5277228;28;20049;-81
2022/03/15 03:44:51;;;;;;;16.15;11.65;;;;;;;5.34;100.00;102585.22;5262321;28;20355;-81
2022/03/15 03:47:22;;;;;;;20.02;10.88;;;;;;;5.36;100.00;102586.00;5282108;28;20092;-81
2022/03/15 03:49:54;;;;;;;21.27;11.35;;;;;;;5.26;100.00;102574.97;5282754;28;20032;-81
2022/03/15 03:52:25;;;;;;;21.92;11.98;;;;;;;5.35;100.00;102586.94;5285835;28;20063;-81
2022/03/15 03:54:56;;;;;;;19.33;11.68;;;;;;;5.38;100.00;102585.94;5283374;28;20021;-81
2022/03/15 03:57:28;;;;;;;24.25;12.35;;;;;;;5.40;100.00;102578.78;5266927;28;20099;-81
2022/03/15 04:00:00;;;;;;;17.05;10.65;;;;;;;5.31;100.00;102566.81;5283803;28;20269;-81
2022/03/15 04:02:31;;;;;;;20.48;11.23;;;;;;;5.36;100.00;102575.41;5283330;28;20372;-81
2022/03/15 04:05:03;;;;;;;20.40;9.95;;;;;;;5.43;100.00;102582.16;5277319;28;20397;-81
2022/03/15 04:07:35;;;;;;;18.63;10.88;;;;;;;5.38;100.00;102570.94;5282523;28;20492;-81
2022/03/15 04:10:08;;;;;;;20.10;11.18;;;;;;;5.40;100.00;102586.72;5284449;28;20113;-81
2022/03/15 04:12:40;;;;;;;17.63;11.00;;;;;;;5.36;100.00;102582.50;5265420;28;20029;-81
2022/03/15 04:15:11;;;;;;;16.90;10.70;;;;;;;5.38;100.00;102588.59;5284785;28;20459;-81
2022/03/15 04:17:43;;;;;;;19.85;10.85;;;;;;;5.29;100.00;102580.13;5283615;28;20060;-81
2022/03/15 04:20:14;;;;;;;15.98;10.35;;;;;;;5.27;100.00;102571.38;5281654;28;20087;-81
2022/03/15 04:22:46;;;;;;;19.45;10.25;;;;;;;5.31;100.00;102582.69;5277187;28;20028;-81
2022/03/15 04:25:19;;;;;;;19.25;11.30;;;;;;;5.29;100.00;102585.44;5272296;28;20036;-81
2022/03/15 04:27:55;;;;;;;18.30;12.00;;;;;;;5.37;100.00;102581.59;5251841;28;20416;-81
2022/03/15 04:30:30;;;;;;;18.85;11.27;;;;;;;5.38;100.00;102593.88;5285271;28;20021;-81
2022/03/15 04:33:02;;;;;;;16.33;11.13;;;;;;;5.40;100.00;102590.25;5276971;28;20243;-81
2022/03/15 04:35:34;;;;;;;17.90;11.80;;;;;;;5.34;100.00;102584.38;5267135;28;20184;-81
2022/03/15 04:38:05;;;;;;;19.33;12.65;;;;;;;5.26;100.00;102584.69;5266338;28;20158;-81
2022/03/15 04:40:37;;;;;;;17.80;12.45;;;;;;;5.26;100.00;102590.00;5266075;28;20029;-81
2022/03/15 04:43:08;;;;;;;18.33;12.55;;;;;;;5.24;100.00;102592.69;5280070;28;20492;-81
2022/03/15 04:45:40;;;;;;;19.17;11.65;;;;;;;5.19;100.00;102576.16;5273375;28;20030;-81
2022/03/15 04:48:13;;;;;;;21.48;11.52;;;;;;;5.22;100.00;102572.50;5263675;28;20405;-81
2022/03/15 04:50:44;;;;;;;21.10;11.95;;;;;;;5.22;100.00;102578.66;5285234;28;20531;-81
2022/03/15 04:53:16;;;;;;;15.88;11.63;;;;;;;5.08;100.00;102563.38;5265842;28;20029;-81
2022/03/15 04:55:48;;;;;;;14.57;10.65;;;;;;;5.15;100.00;102571.06;5284639;28;20036;-81
2022/03/15 04:58:19;;;;;;;17.02;11.80;;;;;;;5.09;100.00;102574.81;5274426;28;20017;-81
2022/03/15 05:00:50;;;;;;;18.25;11.30;;;;;;;5.12;100.00;102566.75;5282951;28;20781;-81
2022/03/15 05:03:22;;;;;;;22.00;12.10;;;;;;;5.16;100.00;102565.69;5284182;28;20059;-81
2022/03/15 05:05:53;;;;;;;21.00;11.95;;;;;;;5.15;100.00;102566.59;5284832;28;20068;-81
2022/03/15 05:08:24;;;;;;;19.77;11.90;;;;;;;5.07;100.00;102550.22;5283613;28;20029;-81
2022/03/15 05:11:06;;;;;;;18.48;11.55;;;;;;;5.16;100.00;102564.84;5260666;28;20080;-81
2022/03/15 05:13:44;;;;;;;20.52;11.80;;;;;;;5.13;100.00;102557.03;5277985;28;20025;-81
2022/03/15 05:16:18;;;;;;;20.23;10.35;;;;;;;5.17;100.00;102546.28;5284377;28;20021;-81
2022/03/15 05:18:53;;;;;;;20.48;11.23;;;;;;;5.23;100.00;102556.56;5283913;28;20033;-81
2022/03/15 05:21:25;;;;;;;17.85;11.15;;;;;;;5.26;100.00;102559.09;5264083;28;20076;-81
2022/03/15 05:23:56;;;;;;;15.57;10.15;;;;;;;5.50;100.00;102551.00;5284072;28;20067;-81
2022/03/15 05:26:28;;;;;;;18.02;10.55;;;;;;;5.41;100.00;102562.00;5279247;28;20025;-81
2022/03/15 05:28:59;;;;;;;19.33;11.00;;;;;;;5.54;100.00;102565.84;5283006;28;20482;-81
2022/03/15 05:31:31;;;;;;;19.35;11.15;;;;;;;5.34;100.00;102552.59;5282696;28;20112;-81
2022/03/15 05:34:02;;;;;;;16.88;11.10;;;;;;;5.32;100.00;102549.16;5277546;28;20024;-81
2022/03/15 05:36:33;;;;;;;16.33;10.18;;;;;;;5.45;100.00;102552.97;5281423;28;20075;-81
2022/03/15 05:39:05;;;;;;;15.00;10.57;;;;;;;5.45;100.00;102542.41;5279403;28;20045;-81
2022/03/15 05:41:37;;;;;;;17.88;10.13;;;;;;;5.46;100.00;102538.84;5281603;28;20400;-81
2022/03/15 05:44:09;;;;;;;19.38;11.77;;;;;;;5.37;100.00;102539.25;5282637;28;20032;-81
2022/03/15 05:46:40;;;;;;;19.10;11.80;;;;;;;5.38;100.00;102535.66;5279348;28;20041;-81
2022/03/15 05:49:11;;;;;;;22.83;12.23;;;;;;;5.29;100.00;102532.50;5281011;28;20104;-81
2022/03/15 05:51:43;;;;;;;17.30;11.60;;;;;;;5.24;100.00;102534.50;5280793;28;20032;-81
2022/03/15 05:54:14;;;;;;;23.33;12.45;;;;;;;5.22;100.00;102530.19;5278433;28;20064;-81
2022/03/15 05:56:45;;;;;;;18.48;12.73;;;;;;;5.14;100.00;102527.88;5281474;28;20028;-81
2022/03/15 05:59:17;;;;;;;22.50;13.48;;;;;;;5.17;100.00;102532.16;5276495;28;20045;-82
2022/03/15 06:01:48;;;;;;;19.05;12.18;;;;;;;5.14;100.00;102529.63;5279761;28;20612;-82
2022/03/15 06:04:24;;;;;;;14.02;11.40;;;;;;;5.08;100.00;102522.84;5278013;28;20029;-82
2022/03/15 06:06:55;;;;;;;20.20;12.82;;;;;;;5.03;100.00;102519.53;5281820;28;20079;-82
2022/03/15 06:09:27;;;;;;;23.13;12.20;;;;;;;5.09;100.00;102533.34;5281660;28;20136;-81
2022/03/15 06:11:58;;;;;;;19.15;11.75;;;;;;;5.10;100.00;102534.19;5276558;28;20112;-82
2022/03/15 06:14:30;;;;;;;18.35;11.73;;;;;;;5.05;100.00;102525.59;5262614;28;20020;-82
2022/03/15 06:17:04;;;;;;;15.10;11.77;;;;;;;5.08;100.00;102517.53;5282704;28;20037;-82
2022/03/15 06:19:36;;;;;;;20.10;12.20;;;;;;;5.12;100.00;102524.44;5282642;28;20411;-82
2022/03/15 06:22:07;;;;;;;20.88;12.85;;;;;;;5.15;100.00;102529.56;5283475;28;20253;-81
2022/03/15 06:24:38;;;;;;;18.85;11.32;;;;;;;5.17;100.00;102526.88;5265112;28;20029;-82
2022/03/15 06:27:10;;;;;;;19.45;12.45;;;;;;;5.17;100.00;102516.28;5263759;28;20032;-82
2022/03/15 06:29:41;;;;;;;19.83;11.60;;;;;;;5.14;100.00;102504.06;5283327;28;20488;-82
2022/03/15 06:32:13;;;;;;;19.73;12.25;;;;;;;5.22;100.00;102522.25;5260813;28;20029;-82
2022/03/15 06:34:44;;;;;;;21.88;11.88;;;;;;;5.32;100.00;102526.22;5264875;28;20060;-81
2022/03/15 06:37:15;;;;;;;18.27;11.90;;;;;;;5.36;100.00;102521.63;5283592;28;20052;-82
2022/03/15 06:39:48;;;;;;;24.25;12.27;;;;;;;5.42;100.00;102521.38;5283293;28;20401;-82
2022/03/15 06:42:20;;;;;;;17.35;11.32;;;;;;;5.48;100.00;102515.81;5257930;28;20037;-81
2022/03/15 06:44:51;;;;;;;17.65;11.38;;;;;;;5.48;100.00;102519.31;5280991;28;20025;-82
2022/03/15 06:47:22;;;;;;;18.08;12.60;;;;;;;5.49;100.00;102513.09;5283089;28;20028;-81
2022/03/15 06:49:54;;;;;;;21.67;11.85;;;;;;;5.57;100.00;102511.88;5265271;28;20209;-82
2022/03/15 06:52:25;;;;;;;16.33;12.48;;;;;;;5.49;100.00;102491.91;5270028;28;20026;-81
2022/03/15 06:54:56;;;;;;;19.02;11.07;;;;;;;5.65;100.00;102509.75;5282552;28;20025;-82
2022/03/15 06:57:28;;;;;;;15.00;11.45;;;;;;;5.71;100.00;102503.31;5283657;28;20060;-81
2022/03/15 07:00:02;;;;;;;16.75;10.93;;;;;;;5.78;100.00;102496.81;5252924;28;20083;-81
2022/03/15 07:02:33;;;;;;;18.73;10.50;;;;;;;5.79;100.00;102490.59;5264213;28;20040;-81
2022/03/15 07:05:06;;;;;;;17.42;11.52;;;;;;;5.86;100.00;102503.47;5283460;28;20029;-82
2022/03/15 07:07:38;;;;;;;17.10;10.70;;;;;;;5.93;100.00;102508.50;5271924;28;20449;-82
2022/03/15 07:10:11;;;;;;;16.30;10.77;;;;;;;5.92;100.00;102490.88;5271501;28;20108;-81
2022/03/15 07:12:42;;;;;;;17.63;10.63;;;;;;;5.98;100.00;102491.47;5273251;28;20009;-82
2022/03/15 07:15:14;;;;;;;14.50;9.50;;;;;;;6.11;100.00;102504.16;5282857;28;20021;-82
2022/03/15 07:17:53;;;;;;;15.95;9.35;;;;;;;6.17;100.00;102501.19;5282308;28;20052;-82
2022/03/15 07:20:25;;;;;;;15.57;9.60;;;;;;;6.15;100.00;102493.31;5283711;28;20086;-81
2022/03/15 07:22:57;;;;;;;14.23;9.25;;;;;;;6.20;100.00;102485.16;5264816;28;20025;-81
2022/03/15 07:25:37;;;;;;;15.65;9.65;;;;;;;6.26;100.00;102484.88;5282358;28;20386;-83
2022/03/15 07:28:08;;;;;;;13.93;9.10;;;;;;;6.31;100.00;102490.81;5282546;28;20385;-82
2022/03/15 07:30:40;;;;;;;18.88;9.32;;;;;;;6.37;100.00;102489.66;5282707;28;20017;-82
2022/03/15 07:33:11;;;;;;;13.90;8.88;;;;;;;6.41;100.00;102492.06;5283153;28;20017;-82
2022/03/15 07:35:42;;;;;;;17.92;9.50;;;;;;;6.47;100.00;102484.75;5282628;28;20116;-82
2022/03/15 07:38:17;;;;;;;13.82;8.50;;;;;;;6.46;100.00;102483.03;5281821;28;20393;-82
2022/03/15 07:40:49;;;;;;;16.73;9.05;;;;;;;6.54;100.00;102484.38;5282800;28;20504;-82
2022/03/15 07:43:23;;;;;;;14.48;8.93;;;;;;;6.52;100.00;102482.72;5282412;28;20021;-82
2022/03/15 07:45:54;;;;;;;15.68;9.35;;;;;;;6.59;100.00;102485.00;5281685;28;20033;-81
2022/03/15 07:48:25;;;;;;;18.02;8.82;;;;;;;6.63;100.00;102488.38;5283628;28;20167;-82
2022/03/15 07:50:57;;;;;;;15.73;8.35;;;;;;;6.68;100.00;102488.13;5282160;28;20393;-82
2022/03/15 07:53:28;;;;;;;13.52;8.07;;;;;;;6.75;100.00;102482.44;5281256;28;20053;-81
2022/03/15 07:56:00;;;;;;;12.95;8.15;;;;;;;6.69;100.00;102468.63;5281899;28;20029;-82
2022/03/15 07:58:31;;;;;;;11.13;7.43;;;;;;;6.81;100.00;102475.97;5281218;28;20052;-81
2022/03/15 08:01:04;;;;;;;16.02;7.57;;;;;;;6.78;100.00;102463.72;5278717;28;20115;-81
2022/03/15 08:03:35;;;;;;;12.98;7.78;;;;;;;6.90;100.00;102470.19;5281043;28;20549;-81
2022/03/15 08:06:06;;;;;;;18.33;8.40;;;;;;;6.94;100.00;102453.19;5281144;28;20121;-82
2022/03/15 08:08:38;;;;;;;11.20;7.57;;;;;;;6.97;100.00;102458.31;5280926;28;20033;-82
2022/03/15 08:11:09;;;;;;;12.75;7.60;;;;;;;7.03;100.00;102457.16;5276633;28;20036;-84
2022/03/15 08:13:40;;;;;;;12.40;7.43;;;;;;;7.04;100.00;102452.69;5279317;28;20033;-82
2022/03/15 08:16:12;;;;;;;16.88;7.45;;;;;;;7.15;100.00;102461.81;5291765;28;20015;-82
2022/03/15 08:18:44;;;;;;;19.40;7.60;;;;;;;7.21;100.00;102454.47;5283622;28;20021;-82
2022/03/15 08:21:16;;;;;;;15.25;7.10;;;;;;;7.24;100.00;102455.19;5281714;28;20359;-82
2022/03/15 08:23:48;;;;;;;14.82;7.22;;;;;;;7.27;100.00;102439.06;5281365;28;20071;-82
2022/03/15 08:26:19;;;;;;;12.70;6.43;;;;;;;7.35;100.00;102446.63;5262519;28;20491;-82
2022/03/15 08:28:52;;;;;;;13.88;6.20;;;;;;;7.32;100.00;102430.88;5280952;28;20036;-82
2022/03/15 08:31:24;;;;;;;14.82;7.40;;;;;;;7.46;100.00;102435.44;5275924;28;20010;-82
2022/03/15 08:33:55;;;;;;;14.80;6.60;;;;;;;7.47;100.00;102435.34;5276824;28;20083;-82
2022/03/15 08:36:26;;;;;;;11.52;6.03;;;;;;;7.64;100.00;102447.69;5283121;28;20402;-82
2022/03/15 08:38:58;;;;;;;11.68;6.30;;;;;;;7.70;100.00;102441.22;5284977;28;20037;-82
2022/03/15 08:41:29;;;;;;;8.63;5.35;;;;;;;7.77;100.00;102442.59;5283857;28;20029;-81
2022/03/15 08:44:01;;;;;;;12.45;5.78;;;;;;;7.85;100.00;102439.47;5284085;28;20087;-82
2022/03/15 08:46:32;;;;;;;8.32;5.57;;;;;;;7.87;100.00;102442.91;5266754;28;20021;-82
2022/03/15 08:49:04;;;;;;;13.60;5.70;;;;;;;7.96;100.00;102442.41;5285699;28;20025;-82
2022/03/15 08:51:35;;;;;;;10.88;5.43;;;;;;;8.01;100.00;102440.34;5284160;28;20029;-81
2022/03/15 08:54:06;;;;;;;13.60;5.50;;;;;;;8.02;100.00;102426.09;5287077;28;20020;-82
2022/03/15 08:56:40;;;;;;;11.73;5.45;;;;;;;8.11;100.00;102435.34;5296440;28;20024;-82
2022/03/15 08:59:15;;;;;;;13.63;5.32;;;;;;;8.18;100.00;102435.88;5293787;28;20083;-82
2022/03/15 09:01:46;;;;;;;11.30;5.38;;;;;;;8.18;100.00;102425.25;5284922;28;20029;-82
2022/03/15 09:04:18;;;;;;;25.98;5.55;;;;;;;8.32;100.00;102427.94;5287740;28;20078;-81
2022/03/15 09:06:49;;;;;;;12.65;5.68;;;;;;;8.42;100.00;102429.16;5287035;28;20104;-82
2022/03/15 09:09:24;;;;;;;12.52;5.20;;;;;;;8.48;100.00;102411.97;5262430;28;20038;-82
2022/03/15 09:11:56;;;;;;;11.02;5.63;;;;;;;8.54;100.00;102419.63;5293577;28;20052;-83
2022/03/15 09:14:31;;;;;;;14.88;5.95;;;;;;;8.67;100.00;102414.41;5283709;28;20056;-83
2022/03/15 09:17:02;;;;;;;11.73;5.43;;;;;;;8.74;100.00;102415.75;5284158;28;20501;-83
2022/03/15 09:19:35;;;;;;;11.68;5.65;;;;;;;8.82;100.00;102404.66;5280733;28;20080;-84
2022/03/15 09:22:07;;;;;;;15.70;5.40;;;;;;;8.94;100.00;102425.22;5262583;28;20064;-84
2022/03/15 09:24:38;;;;;;;11.30;6.05;;;;;;;9.04;100.00;102429.00;5263741;28;20030;-83
2022/03/15 09:27:12;;;;;;;12.65;5.25;;;;;;;9.14;100.00;102431.97;5280921;28;20044;-83
2022/03/15 09:29:43;;;;;;;12.13;5.07;;;;;;;8.98;100.00;102409.91;5282638;28;20033;-84
2022/03/15 09:32:15;;;;;;;9.65;4.90;;;;;;;9.24;100.00;102421.63;5283499;28;20035;-83
2022/03/15 09:34:53;;;;;;;11.75;4.80;;;;;;;9.28;100.00;102429.31;5283792;28;20021;-83
2022/03/15 09:37:27;;;;;;;10.70;5.38;;;;;;;9.44;100.00;102434.53;5264092;28;20071;-84
2022/03/15 09:40:05;;;;;;;11.65;4.97;;;;;;;9.39;100.00;102414.47;5283175;28;20899;-83
2022/03/15 09:42:37;;;;;;;8.43;4.45;;;;;;;9.67;100.00;102426.91;5265039;28;20464;-84
2022/03/15 09:45:09;;;;;;;9.50;4.80;;;;;;;9.49;100.00;102404.94;5283332;28;20075;-83
2022/03/15 09:47:45;;;;;;;11.02;4.35;;;;;;;9.94;100.00;102424.28;5282465;28;20033;-83
2022/03/15 09:50:18;;;;;;;11.80;5.73;;;;;;;9.96;100.00;102410.84;5281537;28;20029;-84
2022/03/15 09:52:49;;;;;;;9.55;4.90;;;;;;;10.06;100.00;102416.41;5283468;28;20070;-85
2022/03/15 09:55:21;;;;;;;10.35;5.95;;;;;;;10.16;100.00;102410.38;5283237;28;20033;-84
2022/03/15 09:57:54;;;;;;;12.60;6.15;;;;;;;10.28;100.00;102423.88;5282916;28;20537;-84
2022/03/15 10:00:26;;;;;;;10.00;5.85;;;;;;;10.51;100.00;102420.53;5242748;28;20049;-83
2022/03/15 10:02:57;;;;;;;11.00;6.03;;;;;;;10.38;100.00;102406.34;5265378;28;20029;-83
2022/03/15 10:05:29;;;;;;;16.10;6.13;;;;;;;10.54;100.00;102401.66;5283368;28;20140;-83
2022/03/15 10:08:04;;;;;;;12.57;5.93;;;;;;;10.66;100.00;102412.44;5282844;28;20112;-84
2022/03/15 10:10:39;;;;;;;17.83;5.90;;;;;;;10.78;100.00;102406.25;5286278;28;20017;-83
2022/03/15 10:13:13;;;;;;;11.68;5.75;;;;;;;10.76;100.00;102405.53;5282810;28;20021;-84
2022/03/15 10:16:03;;;;;;;10.35;5.20;;;;;;;11.02;100.00;102405.53;5264449;28;20036;-83
2022/03/15 10:18:35;;;;;;;11.65;5.78;;;;;;;11.05;100.00;102403.50;5239960;28;20124;-83
2022/03/15 10:21:06;;;;;;;15.55;6.05;;;;;;;10.95;100.00;102373.91;5262477;28;20641;-84
2022/03/15 10:23:43;;;;;;;10.63;5.72;;;;;;;11.37;100.00;102375.47;5282972;28;20027;-83
2022/03/15 10:26:23;;;;;;;13.88;6.07;;;;;;;11.58;100.00;102384.63;5281912;28;20047;-83
2022/03/15 10:28:56;;;;;;;11.77;5.82;;;;;;;11.75;100.00;102387.91;5282476;28;20524;-83
2022/03/15 10:31:29;;;;;;;11.75;6.20;;;;;;;11.90;100.00;102394.75;5282884;28;20029;-82
2022/03/15 10:34:03;;;;;;;9.93;4.68;;;;;;;11.85;100.00;102386.22;5264369;28;20052;-82
2022/03/15 10:36:41;;;;;;;9.70;5.53;;;;;;;11.56;100.00;102351.81;5282245;28;20120;-82
2022/03/15 10:39:17;;;;;;;9.68;4.80;;;;;;;11.72;100.00;102376.44;5282495;28;20063;-82
2022/03/15 10:41:50;;;;;;;9.02;5.07;;;;;;;11.40;100.00;102376.13;5281934;28;20040;-83
2022/03/15 10:44:28;;;;;;;11.32;4.30;;;;;;;11.65;100.00;102364.50;5283079;28;20040;-83
2022/03/15 10:47:02;;;;;;;12.13;5.10;;;;;;;11.79;100.00;102358.13;5264366;28;20017;-83
2022/03/15 10:49:50;;;;;;;12.77;5.20;;;;;;;11.95;100.00;102357.88;5285001;28;20231;-83
2022/03/15 10:52:32;;;;;;;12.02;5.45;;;;;;;11.80;100.00;102354.50;5277370;28;20025;-84
2022/03/15 10:55:31;;;;;;;10.98;5.22;;;;;;;11.99;100.00;102362.03;5282439;28;20041;-83
2022/03/15 10:58:05;;;;;;;11.13;5.70;;;;;;;11.84;100.00;102342.59;5261329;28;20095;-83
2022/03/15 11:00:39;;;;;;;10.07;4.63;;;;;;;11.96;100.00;102343.53;5280787;28;20133;-83
2022/03/15 11:03:20;;;;;;;9.23;4.32;;;;;;;11.99;100.00;102351.34;5257341;28;20027;-83
2022/03/15 11:05:57;;;;;;;11.15;5.03;;;;;;;11.62;100.00;102340.66;5248184;28;20039;-83
2022/03/15 11:08:28;;;;;;;9.18;4.65;;;;;;;11.72;100.00;102336.34;5293658;28;20167;-83
2022/03/15 11:11:05;;;;;;;7.30;4.22;;;;;;;11.82;100.00;102335.69;5279210;28;20115;-83
2022/03/15 11:13:37;;;;;;;8.30;4.18;;;;;;;11.72;100.00;102333.66;5277616;28;20033;-83
2022/03/15 11:16:09;;;;;;;10.60;4.45;;;;;;;11.71;100.00;102334.66;5279461;28;20104;-83
2022/03/15 11:18:40;;;;;;;13.88;5.40;;;;;;;11.70;100.00;102329.41;5281962;28;20025;-83
2022/03/15 11:21:12;;;;;;;10.20;4.70;;;;;;;11.62;100.00;102323.78;5264580;28;20027;-83
2022/03/15 11:23:46;;;;;;;9.95;4.40;;;;;;;11.97;100.00;102320.31;5282387;28;20025;-83
2022/03/15 11:26:21;;;;;;;11.50;3.65;;;;;;;12.04;100.00;102313.53;5282190;28;20029;-82
2022/03/15 11:28:53;;;;;;;11.07;4.40;;;;;;;12.38;100.00;102313.66;5278721;28;20453;-83
2022/03/15 11:31:25;;;;;;;14.50;4.50;;;;;;;12.22;100.00;102303.25;5261388;28;20025;-83
2022/03/15 11:33:58;;;;;;;15.48;4.63;;;;;;;12.51;100.00;102301.00;5276146;28;20055;-83
2022/03/15 11:36:31;;;;;;;9.93;4.55;;;;;;;12.60;100.00;102300.28;5274039;28;20033;-83